Time;durP1;ratioP1;P1;durP2;ratioP2;P2;SDS_P1;SDS_P2;PMS_P1;PMS_P2;Temp;Humidity;BMP_temperature;BMP_pressure;BME280_temperature;BME280_humidity;BME280_pressure;Samples;Min_cycle;Max_cycle;Signal;HPM_P1;HPM_P2
2022/07/11 00:00:24;;;;;;;;;;;;;;;15.90;54.08;100400.69;1421269;91;20304;-87
2022/07/11 00:02:51;;;;;;;;;;;;;;;15.88;53.66;100396.87;1437337;90;20473;-88
2022/07/11 00:05:19;;;;;;;;;;;;;;;15.85;53.60;100398.55;1447961;89;20385;-88
2022/07/11 00:07:47;;;;;;;;;;;;;;;15.83;53.74;100402.44;1437894;91;20512;-88
2022/07/11 00:10:13;;;;;;;;;;;;;;;15.74;54.05;100397.18;1427809;91;20390;-88
2022/07/11 00:12:39;;;;;;;;;;;;;;;15.73;54.08;100398.17;1431786;90;20278;-87
2022/07/11 00:15:06;;;;;;;;;;;;;;;15.70;54.41;100406.54;1432271;90;20407;-87
2022/07/11 00:17:34;;;;;;;;;;;;;;;15.67;54.17;100404.20;1440845;90;21101;-87
2022/07/11 00:20:00;;;;;;;;;;;;;;;15.66;54.01;100411.07;1440746;90;20456;-87
2022/07/11 00:22:26;;;;;;;;;;;;;;;15.60;54.25;100413.95;1442702;90;20295;-88
2022/07/11 00:24:52;;;;;;;;;;;;;;;15.59;54.75;100414.95;1441269;90;20325;-88
2022/07/11 00:27:18;;;;;;;;;;;;;;;15.57;54.73;100415.14;1439135;90;20278;-88
2022/07/11 00:29:44;;;;;;;;;;;;;;;15.56;54.89;100417.97;1436130;89;20370;-88
2022/07/11 00:32:10;;;;;;;;;;;;;;;15.55;54.56;100416.33;1442540;89;20770;-88
2022/07/11 00:34:36;;;;;;;;;;;;;;;15.51;54.80;100419.87;1436617;90;20292;-89
2022/07/11 00:37:02;;;;;;;;;;;;;;;15.46;54.90;100421.41;1437937;90;20418;-89
2022/07/11 00:39:29;;;;;;;;;;;;;;;15.43;54.95;100418.59;1435591;90;20362;-89
2022/07/11 00:41:55;;;;;;;;;;;;;;;15.43;55.11;100419.11;1441212;90;20920;-89
2022/07/11 00:44:21;;;;;;;;;;;;;;;15.35;55.11;100418.66;1428018;90;20280;-90
2022/07/11 00:46:47;;;;;;;;;;;;;;;15.33;55.35;100420.67;1439822;90;20265;-88
2022/07/11 00:49:15;;;;;;;;;;;;;;;15.28;55.44;100425.22;1436187;90;20389;-88
2022/07/11 00:51:41;;;;;;;;;;;;;;;15.27;55.54;100423.55;1445101;90;20407;-88
2022/07/11 00:54:08;;;;;;;;;;;;;;;15.24;55.39;100428.41;1436835;90;20314;-88
2022/07/11 00:56:34;;;;;;;;;;;;;;;15.22;55.21;100427.27;1432404;90;20278;-87
2022/07/11 00:59:01;;;;;;;;;;;;;;;15.20;55.66;100426.61;1426718;90;20353;-88
2022/07/11 01:01:35;;;;;;;;;;;;;;;15.18;55.46;100423.28;1433567;90;20392;-90
2022/07/11 01:04:02;;;;;;;;;;;;;;;15.15;55.74;100426.30;1440923;90;20321;-89
2022/07/11 01:06:34;;;;;;;;;;;;;;;15.11;55.48;100434.34;1422380;91;20348;-90
2022/07/11 01:09:00;;;;;;;;;;;;;;;15.14;55.64;100425.16;1430845;91;20307;-88
2022/07/11 01:11:26;;;;;;;;;;;;;;;15.14;55.61;100427.33;1428741;90;20304;-88
2022/07/11 01:13:52;;;;;;;;;;;;;;;15.15;55.47;100431.64;1425123;91;20479;-89
2022/07/11 01:16:22;;;;;;;;;;;;;;;15.14;55.56;100435.31;1422611;90;20310;-87
2022/07/11 01:18:52;;;;;;;;;;;;;;;15.14;55.56;100429.98;1424796;91;20374;-88
2022/07/11 01:21:34;;;;;;;;;;;;;;;15.11;55.72;100435.16;1426343;91;20438;-88
2022/07/11 01:24:01;;;;;;;;;;;;;;;15.12;55.44;100438.15;1419943;91;20277;-88
2022/07/11 01:26:28;;;;;;;;;;;;;;;15.14;56.13;100439.31;1438716;91;20281;-88
2022/07/11 01:28:59;;;;;;;;;;;;;;;15.15;56.13;100431.64;1400135;89;20271;-89
2022/07/11 01:31:26;;;;;;;;;;;;;;;15.13;56.47;100433.64;1519199;89;20272;-89
2022/07/11 01:33:57;;;;;;;;;;;;;;;15.15;56.03;100429.48;1439035;90;22059;-88
2022/07/11 01:36:23;;;;;;;;;;;;;;;15.13;56.97;100430.97;1420862;91;20411;-88
2022/07/11 01:38:49;;;;;;;;;;;;;;;15.12;56.93;100428.81;1424715;92;20302;-90
2022/07/11 01:41:15;;;;;;;;;;;;;;;15.09;57.14;100433.17;1437687;90;20291;-89
2022/07/11 01:43:41;;;;;;;;;;;;;;;15.06;57.83;100431.38;1435579;90;20264;-89
2022/07/11 01:46:06;;;;;;;;;;;;;;;15.04;57.51;100428.87;1443775;90;20769;-88
2022/07/11 01:48:32;;;;;;;;;;;;;;;14.98;56.81;100432.75;1442398;90;20293;-89
2022/07/11 01:51:01;;;;;;;;;;;;;;;14.94;57.16;100431.45;1436259;90;20278;-88
2022/07/11 01:53:27;;;;;;;;;;;;;;;14.88;57.64;100427.15;1428204;89;20377;-88
2022/07/11 01:55:53;;;;;;;;;;;;;;;14.82;58.08;100427.86;1423328;90;20301;-88
2022/07/11 01:58:19;;;;;;;;;;;;;;;14.76;58.07;100431.70;1436344;90;20327;-88
2022/07/11 02:00:45;;;;;;;;;;;;;;;14.69;59.56;100435.57;1429935;90;20441;-88
2022/07/11 02:03:13;;;;;;;;;;;;;;;14.65;59.14;100432.94;1439829;90;20314;-88
2022/07/11 02:05:39;;;;;;;;;;;;;;;14.56;59.99;100426.00;1420540;90;21616;-88
2022/07/11 02:08:12;;;;;;;;;;;;;;;14.52;60.05;100435.31;1428894;90;20374;-87
2022/07/11 02:10:46;;;;;;;;;;;;;;;14.44;60.27;100430.34;1440221;90;20286;-88
2022/07/11 02:13:14;;;;;;;;;;;;;;;14.39;61.68;100431.35;1431960;90;20386;-88
2022/07/11 02:15:41;;;;;;;;;;;;;;;14.36;61.34;100431.70;1428828;90;20422;-88
2022/07/11 02:18:07;;;;;;;;;;;;;;;14.33;61.36;100433.87;1433484;90;21055;-88
2022/07/11 02:20:33;;;;;;;;;;;;;;;14.29;61.24;100436.03;1432056;90;20330;-87
2022/07/11 02:23:00;;;;;;;;;;;;;;;14.24;61.20;100441.03;1425154;90;20356;-88
2022/07/11 02:25:26;;;;;;;;;;;;;;;14.20;62.20;100439.72;1435831;90;20868;-88
2022/07/11 02:27:52;;;;;;;;;;;;;;;14.15;62.24;100442.06;1415203;91;20426;-88
2022/07/11 02:30:18;;;;;;;;;;;;;;;14.08;63.48;100443.76;1432137;90;20279;-87
2022/07/11 02:32:44;;;;;;;;;;;;;;;14.04;62.78;100449.07;1448385;89;20873;-87
2022/07/11 02:35:10;;;;;;;;;;;;;;;13.95;64.15;100449.11;1443916;89;20301;-88
2022/07/11 02:37:36;;;;;;;;;;;;;;;13.87;64.52;100447.79;1418858;89;20522;-88
2022/07/11 02:40:02;;;;;;;;;;;;;;;13.74;64.71;100453.61;1448975;89;20364;-88
2022/07/11 02:42:28;;;;;;;;;;;;;;;13.63;64.59;100457.93;1457093;89;20343;-88
2022/07/11 02:44:54;;;;;;;;;;;;;;;13.53;64.87;100447.98;1447426;89;20978;-87
2022/07/11 02:47:19;;;;;;;;;;;;;;;13.47;65.23;100454.78;1442299;89;20280;-87
2022/07/11 02:49:47;;;;;;;;;;;;;;;13.43;64.42;100446.80;1453252;89;20947;-88
2022/07/11 02:52:13;;;;;;;;;;;;;;;13.40;64.52;100454.27;1445194;89;20298;-87
2022/07/11 02:54:38;;;;;;;;;;;;;;;13.36;65.96;100455.11;1454657;89;20426;-87
2022/07/11 02:57:05;;;;;;;;;;;;;;;13.30;65.92;100455.27;1445922;89;20316;-87
2022/07/11 02:59:31;;;;;;;;;;;;;;;13.24;65.46;100451.09;1439848;89;20963;-88
2022/07/11 03:01:56;;;;;;;;;;;;;;;13.18;66.64;100450.42;1451085;89;20347;-88
2022/07/11 03:04:22;;;;;;;;;;;;;;;13.12;66.61;100454.56;1444767;89;20218;-88
2022/07/11 03:06:48;;;;;;;;;;;;;;;13.05;66.76;100451.70;1443151;89;20792;-88
2022/07/11 03:09:14;;;;;;;;;;;;;;;13.03;67.41;100457.70;1435397;89;20257;-88
2022/07/11 03:11:40;;;;;;;;;;;;;;;13.01;69.30;100454.87;1439531;89;20339;-88
2022/07/11 03:14:05;;;;;;;;;;;;;;;12.98;67.94;100456.02;1441565;89;20316;-88
2022/07/11 03:16:31;;;;;;;;;;;;;;;13.01;66.97;100453.54;1435881;89;20499;-88
2022/07/11 03:18:58;;;;;;;;;;;;;;;13.02;67.62;100458.67;1438212;89;20364;-89
2022/07/11 03:21:25;;;;;;;;;;;;;;;13.07;67.48;100459.02;1437433;89;20391;-88
2022/07/11 03:23:51;;;;;;;;;;;;;;;13.14;67.39;100453.05;1451069;89;20307;-88
2022/07/11 03:26:17;;;;;;;;;;;;;;;13.19;67.23;100451.56;1455145;89;20287;-88
2022/07/11 03:28:44;;;;;;;;;;;;;;;13.24;66.88;100450.59;1439188;91;21101;-88
2022/07/11 03:31:10;;;;;;;;;;;;;;;13.31;67.43;100452.94;1452444;89;20404;-88
2022/07/11 03:33:36;;;;;;;;;;;;;;;13.38;67.13;100448.28;1439608;89;20970;-88
2022/07/11 03:36:03;;;;;;;;;;;;;;;13.44;67.36;100452.46;1439946;89;21090;-88
2022/07/11 03:38:29;;;;;;;;;;;;;;;13.56;67.00;100451.63;1440393;90;20400;-88
2022/07/11 03:40:56;;;;;;;;;;;;;;;13.68;66.03;100454.78;1454325;89;20308;-90
2022/07/11 03:43:25;;;;;;;;;;;;;;;13.81;66.17;100452.45;1450952;89;20337;-90
2022/07/11 03:45:50;;;;;;;;;;;;;;;13.91;65.55;100447.77;1432985;90;20251;-87
2022/07/11 03:48:16;;;;;;;;;;;;;;;14.03;64.78;100459.39;1436957;90;20333;-87
2022/07/11 03:50:42;;;;;;;;;;;;;;;14.07;64.16;100454.05;1443471;90;20881;-88
2022/07/11 03:53:08;;;;;;;;;;;;;;;14.11;64.04;100459.38;1442789;90;20374;-87
2022/07/11 03:55:34;;;;;;;;;;;;;;;14.13;64.77;100458.22;1438147;90;20842;-87
2022/07/11 03:58:01;;;;;;;;;;;;;;;14.16;64.95;100465.86;1440762;90;20269;-87
2022/07/11 04:00:27;;;;;;;;;;;;;;;14.18;65.05;100466.53;1437579;89;20318;-87
2022/07/11 04:02:55;;;;;;;;;;;;;;;14.17;64.67;100460.03;1426475;90;20310;-89
2022/07/11 04:05:21;;;;;;;;;;;;;;;14.15;64.34;100458.86;1443094;90;20407;-88
2022/07/11 04:07:48;;;;;;;;;;;;;;;14.14;64.26;100457.71;1440356;89;20498;-87
2022/07/11 04:10:15;;;;;;;;;;;;;;;14.12;64.21;100465.85;1424377;90;20452;-86
2022/07/11 04:12:41;;;;;;;;;;;;;;;14.11;64.60;100460.20;1438694;90;20812;-86
2022/07/11 04:15:08;;;;;;;;;;;;;;;14.09;64.36;100465.37;1441418;90;20249;-87
2022/07/11 04:17:37;;;;;;;;;;;;;;;14.10;64.07;100464.39;1439120;89;20270;-87
2022/07/11 04:20:04;;;;;;;;;;;;;;;14.13;63.75;100468.04;1432187;90;20266;-87
2022/07/11 04:22:30;;;;;;;;;;;;;;;14.09;63.35;100469.36;1419338;90;20256;-86
2022/07/11 04:24:56;;;;;;;;;;;;;;;14.13;63.49;100473.36;1445619;89;20278;-87
2022/07/11 04:27:22;;;;;;;;;;;;;;;14.19;63.80;100470.02;1436577;89;20813;-87
2022/07/11 04:29:48;;;;;;;;;;;;;;;14.22;63.68;100476.33;1440498;90;20307;-88
2022/07/11 04:32:13;;;;;;;;;;;;;;;14.27;63.29;100474.00;1452337;90;20337;-87
2022/07/11 04:34:39;;;;;;;;;;;;;;;14.34;63.18;100476.29;1448134;90;20299;-87
2022/07/11 04:37:05;;;;;;;;;;;;;;;14.43;62.67;100479.25;1431712;90;20796;-88
2022/07/11 04:39:34;;;;;;;;;;;;;;;14.55;62.97;100477.58;1435055;90;20294;-88
2022/07/11 04:42:00;;;;;;;;;;;;;;;14.65;62.97;100486.21;1440329;90;20541;-87
2022/07/11 04:44:28;;;;;;;;;;;;;;;14.73;62.29;100483.52;1433758;90;20332;-87
2022/07/11 04:46:55;;;;;;;;;;;;;;;14.77;61.74;100487.48;1434176;90;20292;-87
2022/07/11 04:49:21;;;;;;;;;;;;;;;14.84;61.57;100483.11;1429683;89;20318;-87
2022/07/11 04:51:47;;;;;;;;;;;;;;;14.95;60.92;100487.73;1423800;90;20288;-91
2022/07/11 04:54:12;;;;;;;;;;;;;;;15.06;61.24;100495.34;1430032;90;20931;-86
2022/07/11 04:56:38;;;;;;;;;;;;;;;15.10;59.36;100500.63;1432974;89;20318;-90
2022/07/11 04:59:04;;;;;;;;;;;;;;;15.21;60.01;100500.75;1431748;90;20944;-90
2022/07/11 05:01:30;;;;;;;;;;;;;;;15.29;59.96;100502.86;1437038;90;20314;-90
2022/07/11 05:03:56;;;;;;;;;;;;;;;15.38;59.56;100498.81;1442035;90;20844;-90
2022/07/11 05:06:22;;;;;;;;;;;;;;;15.46;59.48;100500.91;1450368;90;20323;-91
2022/07/11 05:08:48;;;;;;;;;;;;;;;15.56;59.54;100503.33;1442819;90;20287;-91
2022/07/11 05:11:14;;;;;;;;;;;;;;;15.65;58.45;100502.29;1447785;90;20241;-90
2022/07/11 05:13:41;;;;;;;;;;;;;;;15.72;58.37;100503.25;1439332;90;20806;-89
2022/07/11 05:16:07;;;;;;;;;;;;;;;15.82;57.88;100506.17;1433021;90;20288;-91
2022/07/11 05:18:33;;;;;;;;;;;;;;;15.89;58.14;100507.95;1436970;90;20302;-90
2022/07/11 05:20:59;;;;;;;;;;;;;;;16.02;57.25;100504.65;1443132;90;20308;-89
2022/07/11 05:23:25;;;;;;;;;;;;;;;16.15;56.75;100507.54;1436986;90;20236;-91
2022/07/11 05:25:50;;;;;;;;;;;;;;;16.34;56.69;100506.67;1454940;90;20269;-91
2022/07/11 05:28:16;;;;;;;;;;;;;;;16.51;55.50;100510.00;1446097;90;20333;-92
2022/07/11 05:30:43;;;;;;;;;;;;;;;16.65;55.00;100511.33;1421642;91;20287;-91
2022/07/11 05:33:09;;;;;;;;;;;;;;;16.75;55.37;100512.39;1437782;90;20287;-91
2022/07/11 05:35:34;;;;;;;;;;;;;;;16.88;54.26;100509.08;1421309;91;20288;-90
2022/07/11 05:38:00;;;;;;;;;;;;;;;16.97;53.28;100507.95;1425436;90;20263;-92
2022/07/11 05:40:26;;;;;;;;;;;;;;;17.03;52.76;100512.58;1448608;90;20266;-94
2022/07/11 05:42:52;;;;;;;;;;;;;;;17.19;52.69;100511.51;1445458;90;20227;-90
2022/07/11 05:45:18;;;;;;;;;;;;;;;17.25;51.38;100509.92;1421275;90;20252;-91
2022/07/11 05:47:44;;;;;;;;;;;;;;;17.33;52.52;100516.50;1443758;86;20317;-91
2022/07/11 05:50:10;;;;;;;;;;;;;;;17.35;52.28;100510.46;1482249;86;20280;-91
2022/07/11 05:52:36;;;;;;;;;;;;;;;17.39;52.61;100513.06;1461092;86;20322;-93
2022/07/11 05:55:01;;;;;;;;;;;;;;;17.36;51.04;100514.78;1490751;88;20224;-92
2022/07/11 05:57:27;;;;;;;;;;;;;;;17.37;50.23;100513.75;1418784;91;20828;-93
2022/07/11 05:59:53;;;;;;;;;;;;;;;17.48;51.10;100519.12;1449695;89;20279;-93
2022/07/11 06:02:19;;;;;;;;;;;;;;;17.57;50.33;100512.10;1417080;88;20247;-94
2022/07/11 06:04:45;;;;;;;;;;;;;;;17.74;50.16;100514.52;1423389;90;20283;-94
2022/07/11 06:07:11;;;;;;;;;;;;;;;18.02;49.77;100511.41;1446739;90;20764;-93
2022/07/11 06:09:37;;;;;;;;;;;;;;;18.17;48.33;100511.81;1425512;90;20336;-91
2022/07/11 06:12:06;;;;;;;;;;;;;;;18.30;48.18;100510.58;1452013;88;20351;-91
2022/07/11 06:14:32;;;;;;;;;;;;;;;18.45;47.72;100512.63;1429003;89;20375;-92
2022/07/11 06:16:58;;;;;;;;;;;;;;;18.52;46.51;100512.65;1433184;91;20305;-91
2022/07/11 06:19:24;;;;;;;;;;;;;;;18.62;46.23;100507.77;1419739;88;20261;-91
2022/07/11 06:21:50;;;;;;;;;;;;;;;18.75;45.92;100515.07;1456564;89;20308;-93
2022/07/11 06:24:16;;;;;;;;;;;;;;;18.89;46.33;100512.77;1445063;90;20347;-92
2022/07/11 06:26:42;;;;;;;;;;;;;;;19.07;45.65;100518.09;1458780;90;20243;-92
2022/07/11 06:29:08;;;;;;;;;;;;;;;19.30;46.95;100515.89;1469644;90;20525;-92
2022/07/11 06:31:34;;;;;;;;;;;;;;;19.41;46.35;100513.13;1437911;90;20846;-94
2022/07/11 06:34:00;;;;;;;;;;;;;;;19.44;46.28;100511.91;1430524;86;20809;-93
2022/07/11 06:36:26;;;;;;;;;;;;;;;19.20;45.57;100524.86;1425727;86;20185;-94
2022/07/11 06:41:27;;;;;;;;;;;;;;;18.91;45.53;100516.60;1382997;85;20349;31
2022/07/11 06:43:59;;;;;;;;;;;;;;;18.91;46.41;100521.45;1412932;92;20172;-94
2022/07/11 06:46:26;;;;;;;;;;;;;;;18.95;45.58;100516.50;1405151;93;20335;-90
2022/07/11 06:48:53;;;;;;;;;;;;;;;18.80;45.31;100517.98;1395046;93;20355;-88
2022/07/11 06:51:21;;;;;;;;;;;;;;;18.80;45.34;100527.38;1417075;86;21058;-90
2022/07/11 06:53:47;;;;;;;;;;;;;;;18.80;45.87;100522.53;1423601;88;20301;-91
2022/07/11 06:56:15;;;;;;;;;;;;;;;18.76;45.84;100527.47;1433444;89;20355;-92
2022/07/11 06:58:43;;;;;;;;;;;;;;;18.75;45.71;100525.80;1451929;89;21160;-90
2022/07/11 07:01:09;;;;;;;;;;;;;;;18.69;44.99;100526.56;1436153;90;20828;-90
2022/07/11 07:03:37;;;;;;;;;;;;;;;18.77;45.75;100534.48;1441357;90;20378;-89
2022/07/11 07:06:05;;;;;;;;;;;;;;;18.80;45.05;100535.94;1464079;88;20400;-88
2022/07/11 07:08:37;;;;;;;;;;;;;;;18.98;44.80;100525.48;1455243;89;20951;-90
2022/07/11 07:11:04;;;;;;;;;;;;;;;18.92;44.97;100529.80;1469338;88;20254;-88
2022/07/11 07:13:33;;;;;;;;;;;;;;;18.77;44.89;100525.61;1457240;88;20914;-90
2022/07/11 07:16:02;;;;;;;;;;;;;;;18.93;45.13;100528.78;1462711;88;20335;-92
2022/07/11 07:18:28;;;;;;;;;;;;;;;19.20;46.41;100532.91;1467283;89;20365;-88
2022/07/11 07:21:00;;;;;;;;;;;;;;;19.26;44.98;100533.44;1469570;88;20886;-92
2022/07/11 07:23:37;;;;;;;;;;;;;;;19.49;45.50;100525.02;1463154;89;20951;-92
2022/07/11 07:26:05;;;;;;;;;;;;;;;19.73;45.23;100522.29;1457321;88;20298;-91
2022/07/11 07:28:31;;;;;;;;;;;;;;;19.91;45.16;100523.05;1460061;89;20306;-88
2022/07/11 07:30:57;;;;;;;;;;;;;;;19.86;43.09;100533.58;1486492;89;20994;-91
2022/07/11 07:33:24;;;;;;;;;;;;;;;19.85;43.78;100527.88;1465400;89;20306;-90
2022/07/11 07:35:51;;;;;;;;;;;;;;;19.78;43.38;100529.22;1474853;88;20291;-90
2022/07/11 07:38:23;;;;;;;;;;;;;;;19.66;43.03;100525.50;1462458;88;20358;-91
2022/07/11 07:40:50;;;;;;;;;;;;;;;19.87;44.21;100527.68;1469838;88;20951;-92
2022/07/11 07:45:45;;;;;;;;;;;;;;;20.15;44.39;100526.95;1444812;90;20926;-92
2022/07/11 07:48:11;;;;;;;;;;;;;;;20.24;42.87;100525.70;1484603;88;20982;-92
2022/07/11 07:50:38;;;;;;;;;;;;;;;20.44;42.93;100528.87;1484960;88;20293;-92
2022/07/11 07:53:10;;;;;;;;;;;;;;;20.35;41.67;100535.52;1487028;88;21047;-92
2022/07/11 07:55:39;;;;;;;;;;;;;;;20.02;42.08;100530.48;1474364;87;20919;-93
2022/07/11 07:58:10;;;;;;;;;;;;;;;19.67;42.83;100540.56;1439568;89;20288;-93
2022/07/11 08:03:23;;;;;;;;;;;;;;;19.88;43.53;100529.32;1456089;89;20340;-89
2022/07/11 08:05:50;;;;;;;;;;;;;;;20.06;42.60;100523.66;1450976;88;20304;-88
2022/07/11 08:08:16;;;;;;;;;;;;;;;20.26;42.36;100520.95;1443439;89;20460;-88
2022/07/11 08:10:42;;;;;;;;;;;;;;;20.56;43.06;100516.98;1451500;90;20311;-89
2022/07/11 08:13:10;;;;;;;;;;;;;;;20.84;42.00;100522.08;1450136;89;20355;-88
2022/07/11 08:15:37;;;;;;;;;;;;;;;21.17;42.34;100524.61;1437275;89;20417;-91
2022/07/11 08:18:03;;;;;;;;;;;;;;;21.21;40.23;100522.34;1456164;90;20347;-90
2022/07/11 08:20:31;;;;;;;;;;;;;;;20.98;39.54;100516.95;1450301;90;20333;-91
2022/07/11 08:23:01;;;;;;;;;;;;;;;20.81;40.39;100521.98;1454774;89;21420;-91
2022/07/11 08:25:30;;;;;;;;;;;;;;;20.44;40.06;100520.29;1454525;89;20530;-90
2022/07/11 08:27:56;;;;;;;;;;;;;;;20.73;41.19;100520.34;1451213;90;20333;-90
2022/07/11 08:30:24;;;;;;;;;;;;;;;21.20;40.60;100513.41;1455641;90;20318;-93
2022/07/11 08:32:52;;;;;;;;;;;;;;;21.48;38.04;100507.69;1443204;90;20399;-90
2022/07/11 08:35:31;;;;;;;;;;;;;;;21.53;38.95;100509.22;1453005;90;20385;-90
2022/07/11 08:37:57;;;;;;;;;;;;;;;21.57;38.13;100519.02;1443812;90;20326;-90
2022/07/11 08:40:23;;;;;;;;;;;;;;;21.54;37.94;100518.93;1450370;89;20348;-90
2022/07/11 08:42:55;;;;;;;;;;;;;;;21.48;38.66;100520.33;1455723;90;20928;-90
2022/07/11 08:45:24;;;;;;;;;;;;;;;21.42;36.82;100513.95;1448245;89;20311;-92
2022/07/11 08:47:52;;;;;;;;;;;;;;;21.56;36.87;100508.78;1448315;90;20325;-92
2022/07/11 08:50:19;;;;;;;;;;;;;;;21.68;37.63;100508.08;1455875;90;20385;-90
2022/07/11 08:52:45;;;;;;;;;;;;;;;21.96;36.12;100503.08;1450256;90;20318;-89
2022/07/11 08:55:13;;;;;;;;;;;;;;;21.90;34.68;100500.45;1456370;88;20324;-91
2022/07/11 08:57:39;;;;;;;;;;;;;;;21.88;35.47;100503.36;1452496;90;20311;-92
2022/07/11 09:00:08;;;;;;;;;;;;;;;21.93;36.36;100494.09;1450001;90;21734;-91
2022/07/11 09:02:36;;;;;;;;;;;;;;;21.64;36.31;100506.34;1472963;90;20348;-91
2022/07/11 09:05:05;;;;;;;;;;;;;;;21.42;37.89;100505.88;1443755;90;20356;-91
2022/07/11 09:07:33;;;;;;;;;;;;;;;21.15;38.03;100508.69;1441575;90;20445;-90
2022/07/11 09:09:59;;;;;;;;;;;;;;;21.10;38.58;100518.45;1454363;88;20444;-90
2022/07/11 09:12:34;;;;;;;;;;;;;;;21.15;39.51;100516.77;1452660;90;20437;-91
2022/07/11 09:15:01;;;;;;;;;;;;;;;21.18;39.42;100510.12;1450713;89;20311;-90
2022/07/11 09:17:32;;;;;;;;;;;;;;;21.23;39.99;100510.81;1459150;89;20333;-90
2022/07/11 09:20:01;;;;;;;;;;;;;;;21.31;39.21;100510.03;1453981;90;20326;-91
2022/07/11 09:25:31;;;;;;;;;;;;;;;21.42;38.63;100497.79;1442530;90;20444;-90
2022/07/11 09:28:01;;;;;;;;;;;;;;;21.45;38.57;100501.92;1452402;90;21083;-90
2022/07/11 09:30:27;;;;;;;;;;;;;;;21.65;38.98;100495.05;1448171;90;20452;-91
2022/07/11 09:33:01;;;;;;;;;;;;;;;21.85;38.69;100486.28;1447952;90;20340;-89
2022/07/11 09:35:38;;;;;;;;;;;;;;;22.06;38.09;100484.52;1445549;90;20340;-90
2022/07/11 09:38:09;;;;;;;;;;;;;;;22.24;37.63;100484.28;1449559;90;20341;-90
2022/07/11 09:40:36;;;;;;;;;;;;;;;22.39;36.70;100474.51;1442251;90;20444;-90
2022/07/11 09:43:03;;;;;;;;;;;;;;;22.62;36.47;100479.23;1507122;90;20378;-89
2022/07/11 09:45:34;;;;;;;;;;;;;;;23.04;35.75;100480.68;1492129;89;20348;-90
2022/07/11 09:48:12;;;;;;;;;;;;;;;23.27;35.20;100474.02;1438691;90;20596;-91
2022/07/11 09:50:39;;;;;;;;;;;;;;;23.14;34.76;100472.34;1431678;90;20377;-91
2022/07/11 09:53:08;;;;;;;;;;;;;;;23.03;34.92;100473.64;1446594;90;20317;-91
2022/07/11 09:55:46;;;;;;;;;;;;;;;22.88;36.22;100468.63;1442065;90;20912;-92
2022/07/11 09:58:15;;;;;;;;;;;;;;;22.95;34.48;100469.38;1441324;89;20287;-93
2022/07/11 10:00:43;;;;;;;;;;;;;;;22.97;33.67;100470.80;1444296;91;20346;-90
2022/07/11 10:03:11;;;;;;;;;;;;;;;22.94;33.99;100456.39;1449830;90;20385;-90
2022/07/11 10:05:40;;;;;;;;;;;;;;;23.04;34.63;100469.88;1450333;89;20348;-90
2022/07/11 10:08:07;;;;;;;;;;;;;;;22.93;34.09;100471.44;1452636;89;20370;-92
2022/07/11 10:10:34;;;;;;;;;;;;;;;22.66;34.60;100466.92;1429630;89;20282;-91
2022/07/11 10:13:00;;;;;;;;;;;;;;;22.07;35.38;100477.29;1436995;90;20434;-92
2022/07/11 10:15:34;;;;;;;;;;;;;;;21.96;37.46;100479.36;1451157;90;20452;-91
2022/07/11 10:18:12;;;;;;;;;;;;;;;21.93;38.97;100480.63;1500087;89;20315;-88
2022/07/11 10:20:50;;;;;;;;;;;;;;;21.56;47.89;100510.12;1446096;90;20347;-89
2022/07/11 10:23:25;;;;;;;;;;;;;;;21.04;46.42;100497.26;1457376;90;20311;-90
2022/07/11 10:26:13;;;;;;;;;;;;;;;20.79;45.25;100492.30;1417677;91;20340;-91
2022/07/11 10:28:56;;;;;;;;;;;;;;;20.25;44.19;100491.09;1447414;90;20355;-91
2022/07/11 10:31:24;;;;;;;;;;;;;;;20.17;46.00;100491.80;1429328;90;20311;-90
2022/07/11 10:37:32;;;;;;;;;;;;;;;20.24;45.35;100486.73;1442444;89;21545;-89
2022/07/11 10:39:58;;;;;;;;;;;;;;;20.66;45.14;100487.28;1446725;90;20348;-89
2022/07/11 10:42:28;;;;;;;;;;;;;;;21.04;44.49;100483.80;1449251;89;20856;-90
2022/07/11 10:44:55;;;;;;;;;;;;;;;21.29;43.27;100479.84;1436177;90;20265;-91
2022/07/11 10:54:55;;;;;;;;;;;;;;;22.62;41.19;100468.44;1424574;91;20247;-90
2022/07/11 10:57:43;;;;;;;;;;;;;;;22.94;37.15;100465.83;1442120;89;20450;-91
2022/07/11 11:00:15;;;;;;;;;;;;;;;22.73;36.61;100460.94;1468948;88;20443;-89
2022/07/11 11:03:01;;;;;;;;;;;;;;;22.53;39.40;100467.39;1469016;89;20540;-90
2022/07/11 11:05:43;;;;;;;;;;;;;;;22.07;37.98;100474.06;1461861;89;20291;-90
2022/07/11 11:08:29;;;;;;;;;;;;;;;21.65;41.33;100488.31;1451631;89;20316;-90
2022/07/11 11:10:55;;;;;;;;;;;;;;;21.21;46.83;100508.88;1459638;88;20309;-90
2022/07/11 11:13:21;;;;;;;;;;;;;;;20.48;50.56;100515.31;1461542;89;20404;-90
2022/07/11 11:15:52;;;;;;;;;;;;;;;19.81;51.85;100518.06;1468889;85;20316;-93
2022/07/11 11:18:33;;;;;;;;;;;;;;;19.23;59.46;100520.42;1430209;90;20302;-93
2022/07/11 11:21:03;;;;;;;;;;;;;;;18.81;59.72;100516.13;1437732;90;20309;-91
2022/07/11 11:23:31;;;;;;;;;;;;;;;18.12;62.27;100523.10;1443911;91;21065;-93
2022/07/11 11:26:13;;;;;;;;;;;;;;;17.48;65.78;100526.62;1455780;90;20318;-92
2022/07/11 11:29:01;;;;;;;;;;;;;;;17.26;66.46;100528.47;1446661;90;20337;-92
2022/07/11 11:31:29;;;;;;;;;;;;;;;17.06;67.42;100519.37;1443271;90;20352;-90
2022/07/11 11:33:57;;;;;;;;;;;;;;;16.91;69.13;100512.20;1450973;89;20360;-86
2022/07/11 11:36:29;;;;;;;;;;;;;;;16.77;69.81;100511.71;1488164;90;20300;-89
2022/07/11 11:39:08;;;;;;;;;;;;;;;16.64;73.41;100512.86;1440430;91;20346;-90
2022/07/11 11:41:35;;;;;;;;;;;;;;;16.60;74.24;100511.55;1429984;91;20807;-91
2022/07/11 11:44:09;;;;;;;;;;;;;;;16.62;70.38;100514.87;1448900;91;20977;-93
2022/07/11 11:46:37;;;;;;;;;;;;;;;16.70;71.43;100515.61;1446940;91;20377;-91
2022/07/11 11:49:04;;;;;;;;;;;;;;;16.73;72.93;100522.44;1445954;91;20228;-92
2022/07/11 11:51:32;;;;;;;;;;;;;;;16.89;72.46;100521.45;1440432;91;20369;-91
2022/07/11 11:54:02;;;;;;;;;;;;;;;17.39;73.10;100512.23;1437900;90;20243;-93
2022/07/11 11:56:36;;;;;;;;;;;;;;;18.00;68.10;100502.72;1433210;90;20303;-93
2022/07/11 11:59:07;;;;;;;;;;;;;;;18.64;70.34;100499.03;1471287;84;20208;-93
2022/07/11 12:01:39;;;;;;;;;;;;;;;19.34;68.90;100499.71;1423384;86;20396;-90
2022/07/11 12:04:09;;;;;;;;;;;;;;;19.84;60.57;100485.42;1423309;86;20208;-94
2022/07/11 12:09:13;;;;;;;;;;;;;;;20.87;60.58;100489.38;1412478;85;21795;31
2022/07/11 12:11:44;;;;;;;;;;;;;;;21.42;57.23;100486.20;1403095;86;20434;31
2022/07/11 12:14:12;;;;;;;;;;;;;;;21.74;53.76;100498.59;1436741;86;20934;-85
2022/07/11 12:16:43;;;;;;;;;;;;;;;22.05;50.51;100482.89;1426201;86;20202;-93
2022/07/11 12:19:18;;;;;;;;;;;;;;;22.26;49.06;100489.75;1436411;90;20288;-94
2022/07/11 12:21:53;;;;;;;;;;;;;;;22.20;46.59;100491.18;1449154;89;20208;-92
2022/07/11 12:24:22;;;;;;;;;;;;;;;22.62;49.59;100485.97;1444391;90;20401;-91
2022/07/11 12:26:48;;;;;;;;;;;;;;;22.61;44.91;100487.81;1454219;90;20296;-92
2022/07/11 12:29:20;;;;;;;;;;;;;;;22.53;46.58;100487.61;1461847;90;20348;-91
2022/07/11 12:32:12;;;;;;;;;;;;;;;22.82;48.07;100483.84;1453677;89;20354;-94
2022/07/11 12:34:46;;;;;;;;;;;;;;;22.74;45.65;100484.16;1462060;90;20777;-93
2022/07/11 12:37:16;;;;;;;;;;;;;;;22.71;45.80;100490.00;1453618;90;20377;-94
2022/07/11 12:39:51;;;;;;;;;;;;;;;22.47;44.71;100493.91;1436045;89;20379;-94
2022/07/11 12:42:26;;;;;;;;;;;;;;;22.09;46.43;100494.04;1448103;90;20311;-94
2022/07/11 12:45:07;;;;;;;;;;;;;;;21.89;45.81;100494.22;1446055;90;20252;-93
2022/07/11 12:47:53;;;;;;;;;;;;;;;21.60;46.54;100500.55;1451467;90;20209;-94
2022/07/11 12:50:23;;;;;;;;;;;;;;;21.40;46.81;100489.09;1469039;85;20726;-95
2022/07/11 12:55:31;;;;;;;;;;;;;;;21.08;46.84;100494.95;1422189;89;20921;-95
2022/07/11 12:58:08;;;;;;;;;;;;;;;20.88;47.76;100493.70;1423054;91;20259;-94
2022/07/11 13:00:36;;;;;;;;;;;;;;;20.70;46.83;100489.84;1425851;92;20239;-94
2022/07/11 13:03:18;;;;;;;;;;;;;;;20.62;49.25;100487.38;1405133;92;20288;-93
2022/07/11 13:05:55;;;;;;;;;;;;;;;20.61;49.88;100483.05;1431242;91;20296;-93
2022/07/11 13:08:42;;;;;;;;;;;;;;;20.66;50.20;100473.84;1399110;91;20305;-92
2022/07/11 13:11:11;;;;;;;;;;;;;;;20.80;49.20;100460.31;1421557;86;20452;-91